sensor_id;sensor_type;location;lat;lon;timestamp;pressure;altitude;pressure_sealevel;temperature;humidity
4528;BME280;62320;51.520;6.818;2023-03-22T00:00:29;100605.28;;;11.38;94.67
4528;BME280;62320;51.520;6.818;2023-03-22T00:10:31;100606.13;;;11.40;94.29
4528;BME280;62320;51.520;6.818;2023-03-22T00:20:32;100599.22;;;11.44;95.16
4528;BME280;62320;51.520;6.818;2023-03-22T00:30:36;100586.22;;;11.50;94.46
4528;BME280;62320;51.520;6.818;2023-03-22T00:40:38;100581.06;;;11.48;94.45
4528;BME280;62320;51.520;6.818;2023-03-22T00:50:40;100566.41;;;11.49;94.11
4528;BME280;62320;51.520;6.818;2023-03-22T01:00:42;100560.38;;;11.47;93.77
4528;BME280;62320;51.520;6.818;2023-03-22T01:10:45;100542.25;;;11.47;94.14
4528;BME280;62320;51.520;6.818;2023-03-22T01:20:46;100531.06;;;11.42;94.45
4528;BME280;62320;51.520;6.818;2023-03-22T01:30:48;100516.44;;;11.35;94.00
4528;BME280;62320;51.520;6.818;2023-03-22T01:40:51;100506.06;;;11.33;94.75
4528;BME280;62320;51.520;6.818;2023-03-22T01:50:59;100487.97;;;11.32;93.96
4528;BME280;62320;51.520;6.818;2023-03-22T02:01:04;100469.00;;;11.31;94.41
4528;BME280;62320;51.520;6.818;2023-03-22T02:11:06;100465.59;;;11.26;94.23
4528;BME280;62320;51.520;6.818;2023-03-22T02:41:41;100421.00;;;10.88;94.88
4528;BME280;62320;51.520;6.818;2023-03-22T02:51:51;100418.53;;;10.76;95.70
4528;BME280;62320;51.520;6.818;2023-03-22T03:01:58;100414.31;;;10.63;95.30
4528;BME280;62320;51.520;6.818;2023-03-22T03:12:01;100408.34;;;10.50;96.08
4528;BME280;62320;51.520;6.818;2023-03-22T03:22:08;100410.06;;;10.51;96.19
4528;BME280;62320;51.520;6.818;2023-03-22T03:32:25;100405.75;;;10.47;96.68
4528;BME280;62320;51.520;6.818;2023-03-22T03:42:28;100389.41;;;10.45;96.86
4528;BME280;62320;51.520;6.818;2023-03-22T03:52:30;100392.06;;;10.32;96.91
4528;BME280;62320;51.520;6.818;2023-03-22T04:02:33;100383.50;;;10.24;97.23
4528;BME280;62320;51.520;6.818;2023-03-22T04:12:35;100384.38;;;10.11;97.84
4528;BME280;62320;51.520;6.818;2023-03-22T04:22:37;100377.50;;;10.06;98.02
4528;BME280;62320;51.520;6.818;2023-03-22T04:32:39;100365.47;;;10.02;98.28
4528;BME280;62320;51.520;6.818;2023-03-22T04:42:41;100364.66;;;9.88;98.43
4528;BME280;62320;51.520;6.818;2023-03-22T04:52:43;100376.75;;;9.83;99.80
4528;BME280;62320;51.520;6.818;2023-03-22T05:02:44;100374.97;;;9.94;98.90
4528;BME280;62320;51.520;6.818;2023-03-22T05:12:46;100362.09;;;9.90;100.00
4528;BME280;62320;51.520;6.818;2023-03-22T05:22:47;100375.00;;;9.82;98.90
4528;BME280;62320;51.520;6.818;2023-03-22T05:32:56;100365.50;;;9.93;99.55
4528;BME280;62320;51.520;6.818;2023-03-22T05:42:57;100366.38;;;9.97;98.39
4528;BME280;62320;51.520;6.818;2023-03-22T05:52:59;100361.19;;;9.91;99.22
4528;BME280;62320;51.520;6.818;2023-03-22T06:03:00;100363.75;;;10.01;99.09
4528;BME280;62320;51.520;6.818;2023-03-22T06:13:04;100368.91;;;10.12;97.29
4528;BME280;62320;51.520;6.818;2023-03-22T06:23:06;100361.06;;;10.30;96.83
4528;BME280;62320;51.520;6.818;2023-03-22T06:33:08;100347.22;;;10.39;97.74
4528;BME280;62320;51.520;6.818;2023-03-22T06:43:09;100351.38;;;10.62;96.71
4528;BME280;62320;51.520;6.818;2023-03-22T06:53:11;100347.91;;;10.66;96.60
4528;BME280;62320;51.520;6.818;2023-03-22T07:03:12;100340.06;;;10.79;96.24
4528;BME280;62320;51.520;6.818;2023-03-22T07:13:14;100331.31;;;10.93;95.40
4528;BME280;62320;51.520;6.818;2023-03-22T07:23:15;100336.34;;;11.10;94.95
4528;BME280;62320;51.520;6.818;2023-03-22T07:33:17;100332.59;;;11.42;94.34
4528;BME280;62320;51.520;6.818;2023-03-22T07:43:20;100327.25;;;11.55;93.08
4528;BME280;62320;51.520;6.818;2023-03-22T07:53:21;100341.09;;;11.54;93.28
4528;BME280;62320;51.520;6.818;2023-03-22T08:03:22;100340.22;;;11.55;92.13
4528;BME280;62320;51.520;6.818;2023-03-22T08:13:24;100343.56;;;11.64;91.54
4528;BME280;62320;51.520;6.818;2023-03-22T08:23:26;100356.44;;;11.73;89.18
4528;BME280;62320;51.520;6.818;2023-03-22T08:33:42;100354.69;;;11.75;89.38
4528;BME280;62320;51.520;6.818;2023-03-22T08:43:43;100355.50;;;11.80;88.91
4528;BME280;62320;51.520;6.818;2023-03-22T08:53:46;100344.19;;;11.87;88.74
4528;BME280;62320;51.520;6.818;2023-03-22T09:03:47;100350.16;;;11.94;88.05
4528;BME280;62320;51.520;6.818;2023-03-22T09:13:49;100354.31;;;12.07;87.46
4528;BME280;62320;51.520;6.818;2023-03-22T09:23:51;100338.53;;;12.22;86.33
4528;BME280;62320;51.520;6.818;2023-03-22T09:33:52;100321.91;;;12.40;83.53
4528;BME280;62320;51.520;6.818;2023-03-22T09:43:57;100336.41;;;12.51;84.02
4528;BME280;62320;51.520;6.818;2023-03-22T09:54:00;100336.28;;;12.59;85.27
4528;BME280;62320;51.520;6.818;2023-03-22T10:04:28;100340.44;;;12.70;83.81
4528;BME280;62320;51.520;6.818;2023-03-22T10:14:38;100298.88;;;12.73;82.53
4528;BME280;62320;51.520;6.818;2023-03-22T10:24:42;100309.06;;;12.85;84.55
4528;BME280;62320;51.520;6.818;2023-03-22T10:34:45;100322.72;;;12.95;82.57
4528;BME280;62320;51.520;6.818;2023-03-22T10:44:51;100315.66;;;13.05;79.63
4528;BME280;62320;51.520;6.818;2023-03-22T10:54:53;100306.78;;;13.19;79.44
4528;BME280;62320;51.520;6.818;2023-03-22T11:05:03;100303.44;;;13.13;81.96
4528;BME280;62320;51.520;6.818;2023-03-22T11:15:18;100316.25;;;13.20;82.66
4528;BME280;62320;51.520;6.818;2023-03-22T11:25:26;100311.81;;;13.28;81.65
4528;BME280;62320;51.520;6.818;2023-03-22T11:35:29;100295.41;;;13.26;82.17
4528;BME280;62320;51.520;6.818;2023-03-22T11:45:34;100304.84;;;13.30;80.80
4528;BME280;62320;51.520;6.818;2023-03-22T11:55:37;100291.03;;;13.28;83.90
4528;BME280;62320;51.520;6.818;2023-03-22T12:05:41;100291.13;;;13.24;82.87
4528;BME280;62320;51.520;6.818;2023-03-22T12:15:49;100282.59;;;13.17;80.36
4528;BME280;62320;51.520;6.818;2023-03-22T12:25:59;100289.53;;;13.17;81.28
4528;BME280;62320;51.520;6.818;2023-03-22T12:36:04;100292.16;;;13.14;82.27
4528;BME280;62320;51.520;6.818;2023-03-22T12:56:17;100294.84;;;13.09;80.78
4528;BME280;62320;51.520;6.818;2023-03-22T13:16:53;100290.38;;;13.17;78.74
4528;BME280;62320;51.520;6.818;2023-03-22T13:26:57;100279.22;;;13.12;79.68
4528;BME280;62320;51.520;6.818;2023-03-22T13:36:59;100271.31;;;13.18;80.34
4528;BME280;62320;51.520;6.818;2023-03-22T13:47:07;100233.75;;;13.37;80.12
4528;BME280;62320;51.520;6.818;2023-03-22T13:57:37;100230.03;;;13.47;79.49
4528;BME280;62320;51.520;6.818;2023-03-22T14:07:41;100240.53;;;13.43;80.12
4528;BME280;62320;51.520;6.818;2023-03-22T14:17:51;100243.03;;;13.47;80.54
4528;BME280;62320;51.520;6.818;2023-03-22T14:27:54;100243.84;;;13.49;78.94
4528;BME280;62320;51.520;6.818;2023-03-22T14:38:00;100227.44;;;13.47;79.18
4528;BME280;62320;51.520;6.818;2023-03-22T14:48:00;100218.75;;;13.50;78.62
4528;BME280;62320;51.520;6.818;2023-03-22T14:58:01;100227.34;;;13.52;79.45
4528;BME280;62320;51.520;6.818;2023-03-22T15:08:22;100217.00;;;13.50;80.69
4528;BME280;62320;51.520;6.818;2023-03-22T15:18:29;100222.16;;;13.52;79.94
4528;BME280;62320;51.520;6.818;2023-03-22T15:28:31;100208.34;;;13.51;80.45
4528;BME280;62320;51.520;6.818;2023-03-22T15:38:39;100190.22;;;13.48;81.69
4528;BME280;62320;51.520;6.818;2023-03-22T15:48:49;100187.56;;;13.50;80.79
4528;BME280;62320;51.520;6.818;2023-03-22T15:59:00;100197.06;;;13.52;81.65
4528;BME280;62320;51.520;6.818;2023-03-22T16:09:00;100184.09;;;13.51;82.23
4528;BME280;62320;51.520;6.818;2023-03-22T16:19:01;100190.94;;;13.55;81.96
4528;BME280;62320;51.520;6.818;2023-03-22T16:29:02;100187.47;;;13.54;82.41
4528;BME280;62320;51.520;6.818;2023-03-22T16:39:02;100194.41;;;13.54;82.23
4528;BME280;62320;51.520;6.818;2023-03-22T16:49:03;100184.00;;;13.55;80.78
4528;BME280;62320;51.520;6.818;2023-03-22T16:59:03;100185.69;;;13.56;81.82
4528;BME280;62320;51.520;6.818;2023-03-22T17:09:03;100179.69;;;13.54;81.69
4528;BME280;62320;51.520;6.818;2023-03-22T17:19:04;100166.75;;;13.53;81.63
4528;BME280;62320;51.520;6.818;2023-03-22T17:29:05;100174.59;;;13.50;81.21
4528;BME280;62320;51.520;6.818;2023-03-22T17:39:06;100174.69;;;13.45;82.49
4528;BME280;62320;51.520;6.818;2023-03-22T17:49:06;100183.38;;;13.44;82.74
4528;BME280;62320;51.520;6.818;2023-03-22T17:59:07;100165.31;;;13.40;83.39
4528;BME280;62320;51.520;6.818;2023-03-22T18:09:07;100160.09;;;13.40;83.17
4528;BME280;62320;51.520;6.818;2023-03-22T18:19:08;100172.25;;;13.38;83.21
4528;BME280;62320;51.520;6.818;2023-03-22T18:29:09;100173.19;;;13.35;83.61
4528;BME280;62320;51.520;6.818;2023-03-22T18:39:10;100155.06;;;13.32;83.69
4528;BME280;62320;51.520;6.818;2023-03-22T18:49:13;100157.66;;;13.32;84.01
4528;BME280;62320;51.520;6.818;2023-03-22T18:59:14;100146.38;;;13.33;84.15
4528;BME280;62320;51.520;6.818;2023-03-22T19:09:15;100146.38;;;13.33;84.25
4528;BME280;62320;51.520;6.818;2023-03-22T19:19:16;100133.38;;;13.33;84.83
4528;BME280;62320;51.520;6.818;2023-03-22T19:29:17;100136.03;;;13.32;85.26
4528;BME280;62320;51.520;6.818;2023-03-22T19:39:18;100119.56;;;13.33;85.35
4528;BME280;62320;51.520;6.818;2023-03-22T19:49:23;100111.84;;;13.30;87.46
4528;BME280;62320;51.520;6.818;2023-03-22T19:59:24;100107.66;;;13.23;88.69
4528;BME280;62320;51.520;6.818;2023-03-22T20:09:24;100095.69;;;13.17;88.95
4528;BME280;62320;51.520;6.818;2023-03-22T20:19:25;100074.94;;;13.16;89.76
4528;BME280;62320;51.520;6.818;2023-03-22T20:29:25;100080.13;;;13.16;88.89
4528;BME280;62320;51.520;6.818;2023-03-22T20:39:26;100072.44;;;13.13;89.17
4528;BME280;62320;51.520;6.818;2023-03-22T20:49:28;100075.84;;;13.15;88.99
4528;BME280;62320;51.520;6.818;2023-03-22T20:59:28;100062.22;;;13.04;90.22
4528;BME280;62320;51.520;6.818;2023-03-22T21:09:29;100058.75;;;13.03;90.60
4528;BME280;62320;51.520;6.818;2023-03-22T21:19:31;100061.44;;;12.97;91.99
4528;BME280;62320;51.520;6.818;2023-03-22T21:29:31;100043.53;;;12.86;91.91
4528;BME280;62320;51.520;6.818;2023-03-22T21:39:35;100040.16;;;12.81;92.94
4528;BME280;62320;51.520;6.818;2023-03-22T21:49:35;100034.28;;;12.73;93.88
4528;BME280;62320;51.520;6.818;2023-03-22T21:59:36;100030.84;;;12.73;93.21
4528;BME280;62320;51.520;6.818;2023-03-22T22:09:36;100026.47;;;12.75;93.17
4528;BME280;62320;51.520;6.818;2023-03-22T22:19:37;100034.25;;;12.76;93.38
4528;BME280;62320;51.520;6.818;2023-03-22T22:29:38;100023.16;;;12.68;94.02
4528;BME280;62320;51.520;6.818;2023-03-22T22:39:38;100010.41;;;12.56;97.38
4528;BME280;62320;51.520;6.818;2023-03-22T22:49:39;100023.44;;;12.55;95.38
4528;BME280;62320;51.520;6.818;2023-03-22T22:59:39;100012.38;;;12.45;97.07
4528;BME280;62320;51.520;6.818;2023-03-22T23:09:40;99994.53;;;12.30;100.00
4528;BME280;62320;51.520;6.818;2023-03-22T23:19:45;99985.75;;;12.37;99.08
4528;BME280;62320;51.520;6.818;2023-03-22T23:29:53;99975.56;;;12.28;99.00
4528;BME280;62320;51.520;6.818;2023-03-22T23:39:53;99959.94;;;12.31;98.74
4528;BME280;62320;51.520;6.818;2023-03-22T23:49:54;99965.03;;;12.36;97.46
4528;BME280;62320;51.520;6.818;2023-03-22T23:59:55;99965.75;;;12.44;96.46
